ダーウィン の空港の天気 - METARとTAF

ダーウィン国際空港 ( YPDN / DRW ) - オーストラリア ノーザンテリトリーダーウィン
飛行場実況気象(Metar)
観測時間02/18 00:00 ACST (02/17 14:30 UTC)
風向・風速南 2m/s
視程10km以上
天気現象
なし
気温28℃
湿度79%
気圧1011hPa
METARYPDN 171430Z 17003KT CAVOK 28/24 Q1011
過去の天気等 Google飛行場航空写真 Wunderground天気予報

過去48時間のMETAR

飛行場予報(TAF)
発表時間: 2/17 20:36 ACST (2/17 11:06 UTC)
予報対象時間: 17日21時 ACST ~ 19日3時 ACST
風向・風速西南西 4m/s
視程10km以上
少しの雲 雲底高度 460m
18日12時 ACST から
風向・風速西北西 6m/s
視程10km以上
全天の4割程度の雲 雲底高度 910m
18日18時 ACST から
風向・風速西 4m/s
視程10km以上
少しの雲 雲底高度 460m
18日14時 ACST ~ 18日19時 ACST に 確率 30% で一時的に
風向・風速不定 10m/s 瞬間風速 18m/s
視程1000m
天気現象雷雨
全天の8割程度の雲 雲底高度 300m
全天の4割程度の積乱雲 雲底高度 610m
TAF YPDN 171106Z 1712/1818 25008KT 9999 FEW015
FM180300 30012KT 9999 SCT030
FM180900 28007KT 9999 FEW015
PROB30 TEMPO 1805/1810 VRB20G35KT 1000 TSRA BKN010 SCT020CB